createdAt,value
2022-09-26T00:01:41.725Z,18.03
2022-09-26T00:04:15.760Z,18.02
2022-09-26T00:06:44.501Z,18.01
2022-09-26T00:09:13.649Z,18.02
2022-09-26T00:11:42.654Z,18.00
2022-09-26T00:14:29.121Z,17.99
2022-09-26T00:16:57.845Z,17.98
2022-09-26T00:19:27.670Z,17.99
2022-09-26T00:21:56.160Z,17.98
2022-09-26T00:24:24.518Z,17.98
2022-09-26T00:26:52.821Z,17.99
2022-09-26T00:29:21.206Z,17.94
2022-09-26T00:31:49.800Z,17.95
2022-09-26T00:34:20.015Z,17.96
2022-09-26T00:36:51.183Z,17.98
2022-09-26T00:39:19.741Z,17.98
2022-09-26T00:41:48.153Z,17.97
2022-09-26T00:44:47.802Z,17.96
2022-09-26T00:47:41.398Z,17.97
2022-09-26T00:50:16.104Z,17.97
2022-09-26T00:52:47.986Z,17.95
2022-09-26T00:55:18.772Z,17.96
2022-09-26T00:57:51.608Z,17.95
2022-09-26T01:00:20.239Z,17.95
2022-09-26T01:02:49.518Z,17.94
2022-09-26T01:05:20.051Z,17.95
2022-09-26T01:07:50.385Z,17.95
2022-09-26T01:10:19.085Z,17.94
2022-09-26T01:12:47.743Z,17.94
2022-09-26T01:15:16.258Z,17.91
2022-09-26T01:17:45.790Z,17.89
2022-09-26T01:20:26.756Z,17.91
2022-09-26T01:23:35.887Z,17.88
2022-09-26T01:26:40.104Z,17.85
2022-09-26T01:29:29.742Z,17.87
2022-09-26T01:32:22.413Z,17.84
2022-09-26T01:34:56.682Z,17.86
2022-09-26T01:37:30.624Z,17.85
2022-09-26T01:40:06.089Z,17.85
2022-09-26T01:42:39.625Z,17.82
2022-09-26T01:45:12.426Z,17.79
2022-09-26T01:47:43.939Z,17.84
2022-09-26T01:50:16.500Z,17.82
2022-09-26T01:52:48.891Z,17.80
2022-09-26T01:55:19.587Z,17.81
2022-09-26T01:57:50.703Z,17.79
2022-09-26T02:00:19.830Z,17.83
2022-09-26T02:02:50.942Z,17.83
2022-09-26T02:05:26.293Z,17.82
2022-09-26T02:07:56.945Z,17.82
2022-09-26T02:10:28.942Z,17.82
2022-09-26T02:13:01.258Z,17.82
2022-09-26T02:15:32.572Z,17.79
2022-09-26T02:18:08.949Z,17.81
2022-09-26T02:20:39.691Z,17.79
2022-09-26T02:23:08.870Z,17.82
2022-09-26T02:25:37.614Z,17.78
2022-09-26T02:28:06.064Z,17.78
2022-09-26T02:30:34.786Z,17.80
2022-09-26T02:33:04.766Z,17.80
2022-09-26T02:35:52.582Z,17.81
2022-09-26T02:38:21.062Z,17.82
2022-09-26T02:41:02.142Z,17.81
2022-09-26T02:43:45.424Z,17.81
2022-09-26T02:46:28.682Z,17.81
2022-09-26T02:49:09.522Z,17.82
2022-09-26T02:51:55.515Z,17.82
2022-09-26T02:54:28.083Z,17.83
2022-09-26T02:57:08.089Z,17.82
2022-09-26T02:59:45.210Z,17.82
2022-09-26T03:02:16.606Z,17.81
2022-09-26T03:04:55.047Z,17.80
2022-09-26T03:07:27.961Z,17.79
2022-09-26T03:09:57.605Z,17.77
2022-09-26T03:12:26.973Z,17.77
2022-09-26T03:14:58.663Z,17.80
2022-09-26T03:17:29.079Z,17.79
2022-09-26T03:20:02.970Z,17.78
2022-09-26T03:22:33.532Z,17.78
2022-09-26T03:25:01.994Z,17.77
2022-09-26T03:27:33.127Z,17.77
2022-09-26T03:30:01.732Z,17.79
2022-09-26T03:32:30.177Z,17.77
2022-09-26T03:34:59.931Z,17.78
2022-09-26T03:37:28.396Z,17.78
2022-09-26T03:39:56.791Z,17.78
2022-09-26T03:42:38.797Z,17.78
2022-09-26T03:45:10.385Z,17.77
2022-09-26T03:47:58.022Z,17.77
2022-09-26T03:50:28.341Z,17.73
2022-09-26T03:52:56.883Z,17.72
2022-09-26T03:55:25.234Z,17.76
2022-09-26T03:57:53.624Z,17.76
2022-09-26T04:00:30.054Z,17.77
2022-09-26T04:03:03.044Z,17.76
2022-09-26T04:05:41.170Z,17.76
2022-09-26T04:08:10.164Z,17.77
2022-09-26T04:10:40.102Z,17.77
2022-09-26T04:13:09.676Z,17.76
2022-09-26T04:15:39.155Z,17.75
2022-09-26T04:18:13.352Z,17.75
2022-09-26T04:20:44.062Z,17.75
2022-09-26T04:23:13.547Z,17.75
2022-09-26T04:25:42.081Z,17.75
2022-09-26T04:28:10.466Z,17.75
2022-09-26T04:30:40.097Z,17.75
2022-09-26T04:33:12.451Z,17.75
2022-09-26T04:35:53.292Z,17.75
2022-09-26T04:38:21.748Z,17.76
2022-09-26T04:40:50.196Z,17.72
2022-09-26T04:43:18.614Z,17.75
2022-09-26T04:45:48.248Z,17.72
2022-09-26T04:48:16.929Z,17.73
2022-09-26T04:50:45.963Z,17.72
2022-09-26T04:53:16.211Z,17.72
2022-09-26T04:55:54.855Z,17.73
2022-09-26T04:58:23.464Z,17.72
2022-09-26T05:00:52.487Z,17.72
2022-09-26T05:03:36.668Z,17.73
2022-09-26T05:06:07.223Z,17.72
2022-09-26T05:08:37.487Z,17.72
2022-09-26T05:11:07.368Z,17.71
2022-09-26T05:13:37.346Z,17.71
2022-09-26T05:16:08.818Z,17.72
2022-09-26T05:18:39.283Z,17.71
2022-09-26T05:21:08.738Z,17.70
2022-09-26T05:23:56.251Z,17.69
2022-09-26T05:26:27.106Z,17.70
2022-09-26T05:28:56.580Z,17.69
2022-09-26T05:31:30.163Z,17.71
2022-09-26T05:33:58.662Z,17.70
2022-09-26T05:36:27.696Z,17.70
2022-09-26T05:38:57.792Z,17.70
2022-09-26T05:41:28.038Z,17.70
2022-09-26T05:43:56.983Z,17.70
2022-09-26T05:46:28.394Z,17.71
2022-09-26T05:49:00.131Z,17.71
2022-09-26T05:51:29.368Z,17.70
2022-09-26T05:53:59.216Z,17.70
2022-09-26T05:56:29.127Z,17.71
2022-09-26T05:59:09.928Z,17.72
2022-09-26T06:01:57.565Z,17.72
2022-09-26T06:04:44.262Z,17.71
2022-09-26T06:07:40.080Z,17.71
2022-09-26T06:10:14.048Z,17.71
2022-09-26T06:12:52.084Z,17.68
2022-09-26T06:15:20.686Z,17.69
2022-09-26T06:17:49.297Z,17.72
2022-09-26T06:20:19.420Z,17.73
2022-09-26T06:22:48.332Z,17.74
2022-09-26T06:25:18.319Z,17.73
2022-09-26T06:27:47.496Z,17.71
2022-09-26T06:30:17.779Z,17.71
2022-09-26T06:32:47.352Z,17.72
2022-09-26T06:35:22.621Z,17.73
2022-09-26T06:38:09.769Z,17.75
2022-09-26T06:40:39.679Z,17.75
2022-09-26T06:43:08.199Z,17.76
2022-09-26T06:45:56.853Z,17.76
2022-09-26T06:48:42.995Z,17.72
2022-09-26T06:51:21.489Z,17.70
2022-09-26T06:53:49.924Z,17.73
2022-09-26T06:56:23.555Z,17.75
2022-09-26T06:58:51.973Z,17.76
2022-09-26T07:01:24.779Z,17.76
2022-09-26T07:04:04.750Z,17.71
2022-09-26T07:06:39.050Z,17.68
2022-09-26T07:09:12.195Z,17.72
2022-09-26T07:12:14.310Z,17.75
2022-09-26T07:14:47.899Z,17.76
2022-09-26T07:17:23.462Z,17.78
2022-09-26T07:20:11.440Z,17.78
2022-09-26T07:22:58.768Z,17.73
2022-09-26T07:25:27.404Z,17.73
2022-09-26T07:27:57.666Z,17.64
2022-09-26T07:30:36.089Z,17.61
2022-09-26T07:33:11.015Z,17.70
2022-09-26T07:35:46.555Z,17.76
2022-09-26T07:38:15.193Z,17.73
2022-09-26T07:40:44.228Z,17.72
2022-09-26T07:43:35.618Z,17.72
2022-09-26T07:46:20.072Z,17.78
2022-09-26T07:49:09.050Z,17.80
2022-09-26T07:52:00.910Z,17.79
2022-09-26T07:54:40.066Z,17.80
2022-09-26T07:57:27.216Z,17.79
2022-09-26T08:00:19.551Z,17.81
2022-09-26T08:03:02.056Z,17.82
2022-09-26T08:05:32.380Z,17.83
2022-09-26T08:08:01.451Z,17.84
2022-09-26T08:10:48.691Z,17.83
2022-09-26T08:13:36.040Z,17.87
2022-09-26T08:16:24.433Z,17.87
2022-09-26T08:18:56.197Z,17.90
2022-09-26T08:21:26.499Z,17.91
2022-09-26T08:23:59.873Z,17.93
2022-09-26T08:26:46.716Z,17.97
2022-09-26T08:29:21.738Z,17.97
2022-09-26T08:31:54.856Z,18.02
2022-09-26T08:34:25.740Z,18.02
2022-09-26T08:37:31.112Z,18.01
2022-09-26T08:40:28.127Z,18.02
2022-09-26T08:43:04.298Z,18.03
2022-09-26T08:46:32.556Z,18.01
2022-09-26T08:49:42.373Z,18.02
2022-09-26T08:52:31.738Z,18.02
2022-09-26T08:55:03.491Z,18.02
2022-09-26T08:57:35.758Z,18.02
2022-09-26T09:00:15.463Z,18.05
2022-09-26T09:02:49.126Z,18.06
2022-09-26T09:05:23.339Z,18.05
2022-09-26T09:07:55.004Z,18.06
2022-09-26T09:10:35.836Z,18.08
2022-09-26T09:13:34.117Z,18.09
2022-09-26T09:16:23.866Z,18.09
2022-09-26T09:19:08.996Z,18.10
2022-09-26T09:22:06.039Z,18.13
2022-09-26T09:25:00.280Z,18.13
2022-09-26T09:28:00.352Z,18.13
2022-09-26T09:30:36.725Z,18.14
2022-09-26T09:33:26.234Z,18.19
2022-09-26T09:36:17.989Z,18.25
2022-09-26T09:39:06.355Z,18.25
2022-09-26T09:41:54.689Z,18.25
2022-09-26T09:44:31.410Z,18.23
2022-09-26T09:47:00.499Z,18.21
2022-09-26T09:49:29.206Z,18.21
2022-09-26T09:52:08.957Z,18.20
2022-09-26T09:54:46.182Z,18.20
2022-09-26T09:57:34.951Z,18.19
2022-09-26T10:00:11.578Z,18.19
2022-09-26T10:03:18.989Z,18.19
2022-09-26T10:05:51.682Z,18.19
2022-09-26T10:08:31.267Z,18.20
2022-09-26T10:11:23.378Z,18.18
2022-09-26T10:14:03.102Z,18.19
2022-09-26T10:17:15.206Z,18.20
2022-09-26T10:20:04.225Z,18.20
2022-09-26T10:22:38.178Z,18.20
2022-09-26T10:25:09.878Z,18.26
2022-09-26T10:27:41.081Z,18.27
2022-09-26T10:30:26.892Z,18.31
2022-09-26T10:33:00.234Z,18.39
2022-09-26T10:35:52.854Z,18.43
2022-09-26T10:38:24.123Z,18.48
2022-09-26T10:40:59.718Z,18.52
2022-09-26T10:43:32.851Z,18.56
2022-09-26T10:46:11.970Z,18.58
2022-09-26T10:48:51.760Z,18.62
2022-09-26T10:51:45.446Z,18.66
2022-09-26T10:54:18.804Z,18.65
2022-09-26T10:56:50.885Z,18.65
2022-09-26T10:59:27.269Z,18.65
2022-09-26T11:01:59.392Z,18.63
2022-09-26T11:04:47.439Z,18.69
2022-09-26T11:07:42.817Z,18.73
2022-09-26T11:10:38.344Z,18.69
2022-09-26T11:13:22.487Z,18.64
2022-09-26T11:16:02.377Z,18.62
2022-09-26T11:18:37.137Z,18.62
2022-09-26T11:21:27.479Z,18.61
2022-09-26T11:24:02.970Z,18.65
2022-09-26T11:26:36.440Z,18.69
2022-09-26T11:29:13.458Z,18.75
2022-09-26T11:32:06.481Z,18.79
2022-09-26T11:34:48.422Z,18.82
2022-09-26T11:37:54.598Z,18.89
2022-09-26T11:40:34.693Z,18.95
2022-09-26T11:43:16.492Z,18.94
2022-09-26T11:45:59.047Z,18.95
2022-09-26T11:49:01.992Z,19.00
2022-09-26T11:52:02.111Z,19.07
2022-09-26T11:54:46.979Z,19.07
2022-09-26T11:57:35.524Z,19.11
2022-09-26T12:00:09.194Z,19.13
2022-09-26T12:03:05.027Z,19.10
2022-09-26T12:05:44.206Z,19.08
2022-09-26T12:08:24.730Z,19.05
2022-09-26T12:10:57.679Z,19.04
2022-09-26T12:13:35.203Z,19.02
2022-09-26T12:16:12.830Z,18.99
2022-09-26T12:18:49.525Z,18.99
2022-09-26T12:21:27.398Z,19.04
2022-09-26T12:23:57.758Z,19.16
2022-09-26T12:26:34.721Z,19.23
2022-09-26T12:29:16.250Z,19.30
2022-09-26T12:31:54.804Z,19.31
2022-09-26T12:34:48.146Z,19.25
2022-09-26T12:37:33.581Z,19.21
2022-09-26T12:40:14.253Z,19.19
2022-09-26T12:43:05.744Z,19.19
2022-09-26T12:45:53.556Z,19.15
2022-09-26T12:48:40.166Z,19.11
2022-09-26T12:51:19.967Z,19.10
2022-09-26T12:54:17.662Z,19.09
2022-09-26T12:56:53.175Z,19.11
2022-09-26T12:59:52.447Z,19.21
2022-09-26T13:02:37.582Z,19.31
2022-09-26T13:05:17.459Z,19.34
2022-09-26T13:07:54.696Z,19.41
2022-09-26T13:10:38.380Z,19.40
2022-09-26T13:13:33.774Z,19.46
2022-09-26T13:16:13.714Z,19.44
2022-09-26T13:18:44.788Z,19.40
2022-09-26T13:21:16.507Z,19.48
2022-09-26T13:23:53.578Z,19.46
2022-09-26T13:26:29.053Z,19.48
2022-09-26T13:29:16.662Z,19.48
2022-09-26T13:31:48.724Z,19.52
2022-09-26T13:34:21.501Z,19.51
2022-09-26T13:36:50.832Z,19.48
2022-09-26T13:39:26.869Z,19.47
2022-09-26T13:42:01.360Z,19.44
2022-09-26T13:44:55.722Z,19.44
2022-09-26T13:47:31.226Z,19.42
2022-09-26T13:50:03.442Z,19.41
2022-09-26T13:52:43.169Z,19.42
2022-09-26T13:55:14.498Z,19.40
2022-09-26T13:57:51.351Z,19.47
2022-09-26T14:00:49.113Z,19.60
2022-09-26T14:03:41.688Z,19.65
2022-09-26T14:06:29.389Z,19.68
2022-09-26T14:09:24.251Z,19.72
2022-09-26T14:12:19.093Z,19.76
2022-09-26T14:14:54.114Z,19.78
2022-09-26T14:18:15.413Z,19.79
2022-09-26T14:20:55.004Z,19.81
2022-09-26T14:23:44.888Z,19.84
2022-09-26T14:26:21.032Z,19.89
2022-09-26T14:28:54.564Z,19.90
2022-09-26T14:31:40.180Z,19.92
2022-09-26T14:34:20.162Z,19.93
2022-09-26T14:36:49.425Z,19.94
2022-09-26T14:39:40.481Z,19.95
2022-09-26T14:42:19.132Z,19.98
2022-09-26T14:44:52.575Z,20.00
2022-09-26T14:47:22.629Z,20.02
2022-09-26T14:49:59.047Z,20.05
2022-09-26T14:52:27.671Z,20.06
2022-09-26T14:58:17.229Z,20.06
2022-09-26T15:00:47.806Z,20.09
2022-09-26T15:03:18.685Z,20.10
2022-09-26T15:05:47.914Z,20.12
2022-09-26T15:08:24.783Z,20.14
2022-09-26T15:10:54.439Z,20.15
2022-09-26T15:13:35.308Z,20.16
2022-09-26T15:16:15.842Z,20.18
2022-09-26T15:18:48.178Z,20.20
2022-09-26T15:21:27.055Z,20.23
2022-09-26T15:23:56.447Z,20.24
2022-09-26T15:26:26.446Z,20.26
2022-09-26T15:28:56.493Z,20.28
2022-09-26T15:31:28.075Z,20.24
2022-09-26T15:34:16.110Z,20.22
2022-09-26T15:36:45.521Z,20.20
2022-09-26T15:39:46.724Z,20.21
2022-09-26T15:42:46.542Z,20.23
2022-09-26T15:45:29.775Z,20.24
2022-09-26T15:47:59.742Z,20.26
2022-09-26T15:50:33.173Z,20.19
2022-09-26T15:53:05.216Z,20.14
2022-09-26T15:55:38.455Z,20.12
2022-09-26T15:58:07.971Z,20.09
2022-09-26T16:00:38.237Z,20.08
2022-09-26T16:03:28.529Z,20.06
2022-09-26T16:05:58.100Z,20.03
2022-09-26T16:08:28.656Z,20.02
2022-09-26T16:10:58.137Z,19.99
2022-09-26T16:13:28.003Z,19.98
2022-09-26T16:16:03.355Z,19.99
2022-09-26T16:18:37.317Z,20.00
2022-09-26T16:21:18.553Z,20.02
2022-09-26T16:23:49.259Z,20.00
2022-09-26T16:26:28.724Z,19.98
2022-09-26T16:28:57.807Z,19.97
2022-09-26T16:31:29.531Z,19.95
2022-09-26T16:33:59.366Z,19.96
2022-09-26T16:36:30.249Z,19.94
2022-09-26T16:39:00.604Z,19.94
2022-09-26T16:42:01.693Z,19.91
2022-09-26T16:44:33.623Z,19.90
2022-09-26T16:47:05.466Z,19.89
2022-09-26T16:49:46.681Z,19.87
2022-09-26T16:52:34.331Z,19.87
2022-09-26T16:55:05.933Z,19.86
2022-09-26T16:57:35.559Z,19.83
2022-09-26T17:00:24.944Z,19.83
2022-09-26T17:02:53.214Z,19.83
2022-09-26T17:05:22.439Z,19.82
2022-09-26T17:07:52.142Z,19.79
2022-09-26T17:10:22.168Z,19.80
2022-09-26T17:12:52.856Z,19.79
2022-09-26T17:15:26.962Z,19.78
2022-09-26T17:17:56.827Z,19.77
2022-09-26T17:20:26.903Z,19.75
2022-09-26T17:22:56.687Z,19.74
2022-09-26T17:26:33.622Z,19.75
2022-09-26T17:29:45.640Z,19.69
2022-09-26T17:32:16.901Z,19.71
2022-09-26T17:34:45.488Z,19.72
2022-09-26T17:37:16.076Z,19.69
2022-09-26T17:39:48.333Z,19.67
2022-09-26T17:42:17.141Z,19.69
2022-09-26T17:44:47.679Z,19.67
2022-09-26T17:47:16.732Z,19.67
2022-09-26T17:49:49.368Z,19.65
2022-09-26T17:52:25.166Z,19.66
2022-09-26T17:54:57.849Z,19.65
2022-09-26T17:57:27.808Z,19.63
2022-09-26T17:59:56.300Z,19.62
2022-09-26T18:02:27.716Z,19.60
2022-09-26T18:04:56.855Z,19.59
2022-09-26T18:07:25.144Z,19.58
2022-09-26T18:09:55.442Z,19.59
2022-09-26T18:12:25.425Z,19.59
2022-09-26T18:15:03.188Z,19.57
2022-09-26T18:17:32.163Z,19.55
2022-09-26T18:20:00.478Z,19.56
2022-09-26T18:22:31.997Z,19.54
2022-09-26T18:25:05.185Z,19.53
2022-09-26T18:27:36.675Z,19.51
2022-09-26T18:30:06.054Z,19.49
2022-09-26T18:32:36.630Z,19.50
2022-09-26T18:35:05.230Z,19.51
2022-09-26T18:37:33.452Z,19.49
2022-09-26T18:40:04.551Z,19.48
2022-09-26T18:42:33.074Z,19.49
2022-09-26T18:45:04.861Z,19.48
2022-09-26T18:48:04.986Z,19.48
2022-09-26T18:50:36.549Z,19.46
2022-09-26T18:53:05.234Z,19.45
2022-09-26T18:55:52.377Z,19.45
2022-09-26T18:58:27.704Z,19.43
2022-09-26T19:00:58.171Z,19.45
2022-09-26T19:03:28.736Z,19.43
2022-09-26T19:06:01.704Z,19.43
2022-09-26T19:08:33.987Z,19.41
2022-09-26T19:11:11.048Z,19.42
2022-09-26T19:13:39.615Z,19.39
2022-09-26T19:16:08.388Z,19.38
2022-09-26T19:18:36.959Z,19.38
2022-09-26T19:21:08.442Z,19.36
2022-09-26T19:23:37.137Z,19.36
2022-09-26T19:26:07.088Z,19.35
2022-09-26T19:28:36.653Z,19.33
2022-09-26T19:31:05.405Z,19.32
2022-09-26T19:33:33.808Z,19.31
2022-09-26T19:36:02.474Z,19.30
2022-09-26T19:38:30.930Z,19.29
2022-09-26T19:40:59.391Z,19.28
2022-09-26T19:43:29.195Z,19.27
2022-09-26T19:45:57.574Z,19.29
2022-09-26T19:48:25.869Z,19.28
2022-09-26T19:50:54.269Z,19.27
2022-09-26T19:53:24.366Z,19.26
2022-09-26T19:55:55.757Z,19.25
2022-09-26T19:58:25.587Z,19.24
2022-09-26T20:00:56.839Z,19.23
2022-09-26T20:03:28.668Z,19.24
2022-09-26T20:05:57.334Z,19.24
2022-09-26T20:08:27.065Z,19.23
2022-09-26T20:10:56.632Z,19.22
2022-09-26T20:13:24.964Z,19.22
2022-09-26T20:15:56.713Z,19.20
2022-09-26T20:18:25.184Z,19.19
2022-09-26T20:20:55.271Z,19.20
2022-09-26T20:23:25.254Z,19.18
2022-09-26T20:25:54.897Z,19.15
2022-09-26T20:28:23.539Z,19.16
2022-09-26T20:30:56.541Z,19.15
2022-09-26T20:33:27.543Z,19.15
2022-09-26T20:36:03.186Z,19.14
2022-09-26T20:38:35.729Z,19.15
2022-09-26T20:41:12.722Z,19.13
2022-09-26T20:43:42.788Z,19.13
2022-09-26T20:46:11.619Z,19.11
2022-09-26T20:48:43.078Z,19.13
2022-09-26T20:51:17.940Z,19.12
2022-09-26T20:53:46.268Z,19.10
2022-09-26T20:56:20.858Z,19.10
2022-09-26T20:58:50.055Z,19.08
2022-09-26T21:01:19.715Z,19.08
2022-09-26T21:03:51.402Z,19.07
2022-09-26T21:06:22.079Z,19.07
2022-09-26T21:08:50.353Z,19.06
2022-09-26T21:11:20.416Z,19.06
2022-09-26T21:13:48.759Z,19.06
2022-09-26T21:16:19.302Z,19.04
2022-09-26T21:18:51.255Z,19.04
2022-09-26T21:21:22.541Z,19.01
2022-09-26T21:24:28.214Z,19.02
2022-09-26T21:26:56.536Z,19.02
2022-09-26T21:29:25.264Z,19.01
2022-09-26T21:31:56.145Z,19.00
2022-09-26T21:34:27.927Z,19.00
2022-09-26T21:36:59.412Z,19.00
2022-09-26T21:39:28.769Z,18.99
2022-09-26T21:41:59.907Z,18.97
2022-09-26T21:44:30.497Z,18.97
2022-09-26T21:46:58.799Z,18.96
2022-09-26T21:49:28.464Z,18.96
2022-09-26T21:51:59.872Z,18.95
2022-09-26T21:54:32.586Z,18.95
2022-09-26T21:57:04.800Z,18.95
2022-09-26T21:59:33.161Z,18.92
2022-09-26T22:02:01.543Z,18.93
2022-09-26T22:04:31.169Z,18.91
2022-09-26T22:06:59.428Z,18.91
2022-09-26T22:09:27.717Z,18.91
2022-09-26T22:11:55.976Z,18.91
2022-09-26T22:14:24.230Z,18.89
2022-09-26T22:16:52.616Z,18.88
2022-09-26T22:19:21.035Z,18.86
2022-09-26T22:21:51.078Z,18.86
2022-09-26T22:24:19.512Z,18.87
2022-09-26T22:26:47.883Z,18.87
2022-09-26T22:29:16.629Z,18.84
2022-09-26T22:31:45.256Z,18.85
2022-09-26T22:34:14.045Z,18.82
2022-09-26T22:36:42.303Z,18.83
2022-09-26T22:39:11.882Z,18.80
2022-09-26T22:41:40.144Z,18.80
2022-09-26T22:44:09.187Z,18.80
2022-09-26T22:46:38.415Z,18.80
2022-09-26T22:49:06.952Z,18.79
2022-09-26T22:51:35.199Z,18.78
2022-09-26T22:54:03.725Z,18.77
2022-09-26T22:56:33.290Z,18.75
2022-09-26T22:59:02.907Z,18.75
2022-09-26T23:01:31.221Z,18.75
2022-09-26T23:04:00.452Z,18.75
2022-09-26T23:06:29.444Z,18.73
2022-09-26T23:08:58.006Z,18.73
2022-09-26T23:11:27.855Z,18.72
2022-09-26T23:13:57.414Z,18.70
2022-09-26T23:16:27.122Z,18.71
2022-09-26T23:18:55.933Z,18.73
2022-09-26T23:21:25.950Z,18.71
2022-09-26T23:23:55.824Z,18.71
2022-09-26T23:26:25.968Z,18.72
2022-09-26T23:28:55.473Z,18.69
2022-09-26T23:31:26.155Z,18.67
2022-09-26T23:33:55.347Z,18.66
2022-09-26T23:36:24.250Z,18.66
2022-09-26T23:38:52.588Z,18.68
2022-09-26T23:41:20.866Z,18.65
2022-09-26T23:43:49.481Z,18.65
2022-09-26T23:46:17.775Z,18.63
2022-09-26T23:48:47.493Z,18.61
2022-09-26T23:51:15.740Z,18.62
2022-09-26T23:53:43.948Z,18.63
2022-09-26T23:56:14.354Z,18.61
2022-09-26T23:58:42.655Z,18.62
